createdAt,value
2022-08-29T00:01:21.696Z,101521.88
2022-08-29T00:03:50.653Z,101530.31
2022-08-29T00:06:19.601Z,101528.88
2022-08-29T00:08:47.268Z,101530.78
2022-08-29T00:11:14.958Z,101532.94
2022-08-29T00:13:42.787Z,101521.97
2022-08-29T00:16:10.699Z,101528.88
2022-08-29T00:18:38.441Z,101527.25
2022-08-29T00:21:06.921Z,101521.59
2022-08-29T00:23:35.849Z,101527.28
2022-08-29T00:26:03.483Z,101520.88
2022-08-29T00:28:31.127Z,101522.66
2022-08-29T00:30:58.715Z,101514.22
2022-08-29T00:33:26.341Z,101519.09
2022-08-29T00:35:53.979Z,101528.06
2022-08-29T00:38:27.780Z,101527.38
2022-08-29T00:40:58.688Z,101529.22
2022-08-29T00:43:28.747Z,101534.63
2022-08-29T00:46:03.463Z,101527.38
2022-08-29T00:48:31.183Z,101535.41
2022-08-29T00:51:02.943Z,101527.63
2022-08-29T00:53:32.990Z,101532.91
2022-08-29T00:56:02.198Z,101537.63
2022-08-29T00:58:33.266Z,101537.44
2022-08-29T01:01:00.889Z,101525.31
2022-08-29T01:03:31.497Z,101523.72
2022-08-29T01:05:59.093Z,101520.22
2022-08-29T01:08:26.715Z,101523.53
2022-08-29T01:11:11.946Z,101526.94
2022-08-29T01:13:43.230Z,101526.09
2022-08-29T01:16:12.703Z,101530.44
2022-08-29T01:18:42.254Z,101525.31
2022-08-29T01:21:15.819Z,101532.41
2022-08-29T01:23:46.165Z,101532.41
2022-08-29T01:26:15.108Z,101539.53
2022-08-29T01:28:44.812Z,101531.78
2022-08-29T01:31:15.237Z,101532.16
2022-08-29T01:34:02.926Z,101529.19
2022-08-29T01:36:37.507Z,101530.22
2022-08-29T01:39:05.468Z,101527.84
2022-08-29T01:41:35.439Z,101531.75
2022-08-29T01:44:09.832Z,101535.00
2022-08-29T01:46:37.724Z,101532.06
2022-08-29T01:49:07.781Z,101533.53
2022-08-29T01:51:35.952Z,101536.59
2022-08-29T01:54:05.944Z,101527.50
2022-08-29T01:56:36.910Z,101534.13
2022-08-29T01:59:07.163Z,101532.75
2022-08-29T02:01:36.405Z,101529.13
2022-08-29T02:04:05.714Z,101523.78
2022-08-29T02:06:33.419Z,101528.94
2022-08-29T02:09:01.324Z,101524.66
2022-08-29T02:11:29.134Z,101527.34
2022-08-29T02:13:59.785Z,101526.22
2022-08-29T02:16:28.761Z,101528.06
2022-08-29T02:18:56.594Z,101526.38
2022-08-29T02:21:26.078Z,101530.75
2022-08-29T02:23:55.232Z,101533.81
2022-08-29T02:26:23.222Z,101528.34
2022-08-29T02:28:51.807Z,101531.13
2022-08-29T02:31:21.598Z,101535.34
2022-08-29T02:33:49.665Z,101537.81
2022-08-29T02:36:19.264Z,101532.63
2022-08-29T02:38:47.387Z,101532.91
2022-08-29T02:41:15.039Z,101533.88
2022-08-29T02:43:43.299Z,101530.59
2022-08-29T02:46:14.595Z,101529.19
2022-08-29T02:48:47.594Z,101534.63
2022-08-29T02:51:29.935Z,101542.59
2022-08-29T02:53:58.017Z,101541.56
2022-08-29T02:56:25.638Z,101535.13
2022-08-29T02:58:53.247Z,101531.31
2022-08-29T03:01:22.924Z,101538.22
2022-08-29T03:03:52.529Z,101542.31
2022-08-29T03:06:21.139Z,101541.78
2022-08-29T03:08:48.790Z,101546.59
2022-08-29T03:11:17.141Z,101550.56
2022-08-29T03:13:45.122Z,101546.00
2022-08-29T03:16:14.152Z,101550.09
2022-08-29T03:18:41.884Z,101537.63
2022-08-29T03:21:17.451Z,101543.44
2022-08-29T03:23:45.062Z,101538.34
2022-08-29T03:26:12.675Z,101538.09
2022-08-29T03:28:40.302Z,101541.41
2022-08-29T03:31:08.271Z,101540.19
2022-08-29T03:33:35.903Z,101538.16
2022-08-29T03:36:04.082Z,101532.03
2022-08-29T03:38:39.268Z,101533.72
2022-08-29T03:41:07.755Z,101535.19
2022-08-29T03:43:35.782Z,101537.50
2022-08-29T03:46:03.491Z,101538.13
2022-08-29T03:48:33.196Z,101536.28
2022-08-29T03:51:00.883Z,101537.00
2022-08-29T03:53:28.571Z,101536.00
2022-08-29T03:55:59.790Z,101530.84
2022-08-29T03:58:27.456Z,101523.84
2022-08-29T04:00:55.081Z,101521.56
2022-08-29T04:03:26.517Z,101517.50
2022-08-29T04:05:59.567Z,101527.31
2022-08-29T04:08:27.507Z,101518.56
2022-08-29T04:10:55.117Z,101520.22
2022-08-29T04:13:24.283Z,101515.41
2022-08-29T04:15:51.921Z,101517.19
2022-08-29T04:18:21.390Z,101514.97
2022-08-29T04:20:50.717Z,101515.38
2022-08-29T04:23:18.311Z,101524.38
2022-08-29T04:25:45.946Z,101523.84
2022-08-29T04:28:15.083Z,101519.81
2022-08-29T04:30:51.368Z,101514.19
2022-08-29T04:33:22.471Z,101515.66
2022-08-29T04:35:51.333Z,101519.41
2022-08-29T04:38:18.999Z,101517.94
2022-08-29T04:40:46.858Z,101527.66
2022-08-29T04:43:14.806Z,101524.97
2022-08-29T04:45:43.438Z,101521.38
2022-08-29T04:48:12.412Z,101529.03
2022-08-29T04:50:40.214Z,101527.16
2022-08-29T04:53:07.848Z,101531.47
2022-08-29T04:55:35.479Z,101535.75
2022-08-29T04:58:04.156Z,101546.78
2022-08-29T05:00:31.969Z,101541.13
2022-08-29T05:03:00.072Z,101537.34
2022-08-29T05:05:29.111Z,101540.38
2022-08-29T05:07:56.750Z,101547.78
2022-08-29T05:10:26.224Z,101556.00
2022-08-29T05:12:53.879Z,101561.56
2022-08-29T05:15:23.965Z,101557.34
2022-08-29T05:17:51.895Z,101556.41
2022-08-29T05:20:19.503Z,101562.91
2022-08-29T05:22:48.538Z,101564.59
2022-08-29T05:25:18.454Z,101560.72
2022-08-29T05:27:46.640Z,101561.88
2022-08-29T05:30:16.353Z,101562.69
2022-08-29T05:32:56.810Z,101559.34
2022-08-29T05:35:24.584Z,101561.03
2022-08-29T05:37:53.566Z,101568.31
2022-08-29T05:40:21.642Z,101570.44
2022-08-29T05:42:49.529Z,101570.38
2022-08-29T05:45:17.499Z,101555.31
2022-08-29T05:47:45.158Z,101560.78
2022-08-29T05:50:13.656Z,101562.88
2022-08-29T05:52:41.787Z,101564.03
2022-08-29T05:55:10.936Z,101566.34
2022-08-29T05:57:38.747Z,101566.59
2022-08-29T06:00:08.516Z,101568.97
2022-08-29T06:02:36.327Z,101568.72
2022-08-29T06:05:04.647Z,101572.53
2022-08-29T06:07:33.086Z,101577.16
2022-08-29T06:10:04.037Z,101580.56
2022-08-29T06:12:33.568Z,101576.63
2022-08-29T06:15:01.203Z,101572.69
2022-08-29T06:17:28.899Z,101577.66
2022-08-29T06:19:56.525Z,101572.59
2022-08-29T06:22:24.163Z,101578.84
2022-08-29T06:24:54.874Z,101576.09
2022-08-29T06:27:25.225Z,101578.97
2022-08-29T06:29:54.326Z,101584.28
2022-08-29T06:32:22.023Z,101582.41
2022-08-29T06:34:49.681Z,101574.25
2022-08-29T06:37:17.321Z,101567.78
2022-08-29T06:39:45.019Z,101574.72
2022-08-29T06:42:12.699Z,101571.53
2022-08-29T06:44:44.416Z,101575.22
2022-08-29T06:47:13.611Z,101579.00
2022-08-29T06:49:41.296Z,101572.41
2022-08-29T06:52:09.248Z,101568.25
2022-08-29T06:54:36.847Z,101576.66
2022-08-29T06:57:04.659Z,101571.34
2022-08-29T06:59:32.464Z,101581.56
2022-08-29T07:02:00.176Z,101576.38
2022-08-29T07:04:30.128Z,101572.41
2022-08-29T07:06:58.352Z,101571.75
2022-08-29T07:09:26.523Z,101564.38
2022-08-29T07:11:54.775Z,101565.72
2022-08-29T07:14:22.408Z,101571.53
2022-08-29T07:16:49.988Z,101574.88
2022-08-29T07:19:17.651Z,101575.50
2022-08-29T07:21:48.596Z,101570.78
2022-08-29T07:24:16.211Z,101568.25
2022-08-29T07:26:45.332Z,101566.91
2022-08-29T07:29:15.662Z,101572.78
2022-08-29T07:31:43.725Z,101570.44
2022-08-29T07:34:11.635Z,101565.91
2022-08-29T07:36:39.338Z,101568.47
2022-08-29T07:39:10.113Z,101571.03
2022-08-29T07:41:39.626Z,101575.63
2022-08-29T07:44:07.282Z,101574.16
2022-08-29T07:46:35.105Z,101575.00
2022-08-29T07:49:02.764Z,101580.59
2022-08-29T07:51:31.032Z,101580.25
2022-08-29T07:53:58.846Z,101583.53
2022-08-29T07:56:35.842Z,101576.41
2022-08-29T07:59:06.452Z,101589.72
2022-08-29T08:01:35.300Z,101587.00
2022-08-29T08:04:03.023Z,101583.31
2022-08-29T08:06:34.457Z,101587.22
2022-08-29T08:09:03.703Z,101597.72
2022-08-29T08:11:32.983Z,101592.66
2022-08-29T08:14:00.623Z,101593.25
2022-08-29T08:16:29.252Z,101589.56
2022-08-29T08:18:57.335Z,101593.63
2022-08-29T08:21:25.911Z,101594.31
2022-08-29T08:23:53.804Z,101596.75
2022-08-29T08:26:21.982Z,101595.91
2022-08-29T08:28:51.148Z,101593.81
2022-08-29T08:31:19.380Z,101594.31
2022-08-29T08:33:47.892Z,101594.81
2022-08-29T08:36:17.903Z,101591.66
2022-08-29T08:38:45.798Z,101599.88
2022-08-29T08:41:27.462Z,101594.53
2022-08-29T08:43:59.093Z,101603.25
2022-08-29T08:46:30.227Z,101608.56
2022-08-29T08:48:59.135Z,101598.47
2022-08-29T08:51:30.267Z,101595.31
2022-08-29T08:53:59.298Z,101603.03
2022-08-29T08:56:40.165Z,101609.38
2022-08-29T08:59:16.148Z,101607.84
2022-08-29T09:01:46.829Z,101597.53
2022-08-29T09:04:40.000Z,101602.13
2022-08-29T09:07:19.152Z,101602.78
2022-08-29T09:09:58.664Z,101590.94
2022-08-29T09:12:35.007Z,101606.59
2022-08-29T09:15:13.340Z,101600.13
2022-08-29T09:17:45.551Z,101606.22
2022-08-29T09:20:16.902Z,101605.13
2022-08-29T09:22:49.800Z,101599.56
2022-08-29T09:25:17.459Z,101604.28
2022-08-29T09:27:45.327Z,101594.22
2022-08-29T09:30:18.129Z,101591.63
2022-08-29T09:32:58.896Z,101592.19
2022-08-29T09:35:29.076Z,101594.28
2022-08-29T09:38:02.434Z,101591.44
2022-08-29T09:40:50.685Z,101587.81
2022-08-29T09:43:24.951Z,101588.97
2022-08-29T09:46:14.605Z,101595.41
2022-08-29T09:48:44.314Z,101594.06
2022-08-29T09:51:15.788Z,101592.38
2022-08-29T09:53:43.607Z,101582.38
2022-08-29T09:56:17.560Z,101579.66
2022-08-29T09:58:45.279Z,101576.81
2022-08-29T10:01:20.165Z,101579.31
2022-08-29T10:03:56.399Z,101574.94
2022-08-29T10:06:26.296Z,101573.47
2022-08-29T10:09:03.280Z,101570.28
2022-08-29T10:11:36.010Z,101583.56
2022-08-29T10:14:06.889Z,101586.69
2022-08-29T10:16:47.205Z,101586.25
2022-08-29T10:19:29.960Z,101585.41
2022-08-29T10:22:06.843Z,101581.50
2022-08-29T10:24:51.930Z,101581.00
2022-08-29T10:27:26.479Z,101585.84
2022-08-29T10:30:05.082Z,101576.22
2022-08-29T10:32:52.295Z,101584.75
2022-08-29T10:35:23.075Z,101584.75
2022-08-29T10:37:56.414Z,101590.94
2022-08-29T10:40:30.587Z,101582.13
2022-08-29T10:43:21.159Z,101580.25
2022-08-29T10:45:59.895Z,101568.19
2022-08-29T10:48:31.671Z,101571.28
2022-08-29T10:51:10.551Z,101564.81
2022-08-29T10:53:41.732Z,101568.75
2022-08-29T10:56:13.051Z,101569.13
2022-08-29T10:58:51.474Z,101576.00
2022-08-29T11:01:23.842Z,101570.38
2022-08-29T11:04:04.268Z,101563.78
2022-08-29T11:09:11.997Z,101562.50
2022-08-29T11:11:43.037Z,101566.97
2022-08-29T11:14:19.439Z,101559.91
2022-08-29T11:16:48.712Z,101554.59
2022-08-29T11:19:22.759Z,101550.88
2022-08-29T11:21:56.683Z,101546.56
2022-08-29T11:24:31.725Z,101554.38
2022-08-29T11:27:08.401Z,101548.56
2022-08-29T11:29:40.432Z,101549.44
2022-08-29T11:32:10.937Z,101547.78
2022-08-29T11:34:49.230Z,101547.19
2022-08-29T11:37:31.415Z,101545.44
2022-08-29T11:40:04.279Z,101536.38
2022-08-29T11:42:51.194Z,101541.03
2022-08-29T11:45:25.593Z,101540.19
2022-08-29T11:48:19.504Z,101529.31
2022-08-29T11:50:49.330Z,101529.59
2022-08-29T11:53:33.617Z,101528.88
2022-08-29T11:56:27.769Z,101527.91
2022-08-29T11:58:56.743Z,101526.91
2022-08-29T12:01:56.452Z,101527.72
2022-08-29T12:04:51.548Z,101521.19
2022-08-29T12:07:21.615Z,101517.53
2022-08-29T12:09:56.449Z,101525.97
2022-08-29T12:12:45.050Z,101511.94
2022-08-29T12:15:49.975Z,101507.19
2022-08-29T12:18:45.571Z,101502.50
2022-08-29T12:21:35.839Z,101502.53
2022-08-29T12:24:05.214Z,101493.72
2022-08-29T12:26:44.805Z,101503.44
2022-08-29T12:29:20.203Z,101499.75
2022-08-29T12:32:23.436Z,101501.72
2022-08-29T12:35:05.635Z,101503.97
2022-08-29T12:37:47.602Z,101506.09
2022-08-29T12:40:31.016Z,101501.41
2022-08-29T12:43:14.016Z,101497.56
2022-08-29T12:45:43.620Z,101502.09
2022-08-29T12:48:15.462Z,101499.00
2022-08-29T12:50:45.313Z,101493.13
2022-08-29T12:53:19.956Z,101499.03
2022-08-29T12:55:51.356Z,101504.03
2022-08-29T12:58:34.004Z,101497.16
2022-08-29T13:01:01.963Z,101504.75
2022-08-29T13:03:29.555Z,101498.44
2022-08-29T13:06:05.207Z,101493.63
2022-08-29T13:08:37.038Z,101488.28
2022-08-29T13:11:08.969Z,101490.88
2022-08-29T13:13:37.031Z,101483.06
2022-08-29T13:16:07.662Z,101490.00
2022-08-29T13:18:49.119Z,101481.50
2022-08-29T13:21:27.862Z,101478.72
2022-08-29T13:24:04.007Z,101480.13
2022-08-29T13:26:34.159Z,101472.66
2022-08-29T13:29:25.321Z,101472.47
2022-08-29T13:32:23.587Z,101469.88
2022-08-29T13:35:02.149Z,101457.09
2022-08-29T13:37:31.999Z,101455.09
2022-08-29T13:40:31.385Z,101449.25
2022-08-29T13:43:00.723Z,101441.25
2022-08-29T13:45:28.408Z,101442.16
2022-08-29T13:48:13.150Z,101438.31
2022-08-29T13:50:41.325Z,101434.88
2022-08-29T13:53:09.060Z,101434.97
2022-08-29T13:55:38.299Z,101423.63
2022-08-29T13:58:05.943Z,101426.00
2022-08-29T14:00:35.493Z,101425.09
2022-08-29T14:03:06.992Z,101429.44
2022-08-29T14:05:35.522Z,101428.63
2022-08-29T14:08:04.031Z,101414.91
2022-08-29T14:10:31.651Z,101418.59
2022-08-29T14:13:00.803Z,101415.13
2022-08-29T14:15:28.454Z,101409.75
2022-08-29T14:17:56.167Z,101414.97
2022-08-29T14:20:23.925Z,101415.31
2022-08-29T14:22:51.853Z,101412.81
2022-08-29T14:25:20.710Z,101402.47
2022-08-29T14:27:48.876Z,101410.56
2022-08-29T14:30:21.026Z,101411.44
2022-08-29T14:32:48.832Z,101409.34
2022-08-29T14:35:25.872Z,101407.00
2022-08-29T14:37:55.563Z,101409.25
2022-08-29T14:40:23.895Z,101412.69
2022-08-29T14:42:53.483Z,101405.97
2022-08-29T14:45:22.576Z,101398.66
2022-08-29T14:47:50.212Z,101395.13
2022-08-29T14:50:18.140Z,101404.94
2022-08-29T14:52:46.935Z,101401.06
2022-08-29T14:55:14.664Z,101395.47
2022-08-29T14:57:42.756Z,101398.72
2022-08-29T15:00:12.941Z,101396.38
2022-08-29T15:02:42.479Z,101396.44
2022-08-29T15:05:11.532Z,101390.28
2022-08-29T15:07:39.234Z,101386.91
2022-08-29T15:10:07.784Z,101388.19
2022-08-29T15:12:35.504Z,101387.69
2022-08-29T15:15:03.523Z,101393.25
2022-08-29T15:17:31.183Z,101397.25
2022-08-29T15:22:47.696Z,101395.81
2022-08-29T15:25:15.314Z,101395.41
2022-08-29T15:27:43.111Z,101392.28
2022-08-29T15:30:11.879Z,101394.53
2022-08-29T15:32:39.554Z,101397.59
2022-08-29T15:35:10.318Z,101372.91
2022-08-29T15:37:43.320Z,101372.53
2022-08-29T15:40:13.637Z,101377.41
2022-08-29T15:42:41.596Z,101381.50
2022-08-29T15:45:10.675Z,101367.38
2022-08-29T15:47:39.476Z,101362.63
2022-08-29T15:50:09.757Z,101364.50
2022-08-29T15:52:37.838Z,101361.13
2022-08-29T15:55:07.115Z,101362.13
2022-08-29T15:57:51.098Z,101356.34
2022-08-29T16:00:30.525Z,101364.44
2022-08-29T16:03:03.147Z,101362.19
2022-08-29T16:05:32.868Z,101355.25
2022-08-29T16:08:00.827Z,101355.13
2022-08-29T16:10:28.486Z,101357.13
2022-08-29T16:12:56.315Z,101362.06
2022-08-29T16:15:24.205Z,101353.31
2022-08-29T16:17:52.506Z,101352.03
2022-08-29T16:20:20.323Z,101354.72
2022-08-29T16:22:49.645Z,101354.72
2022-08-29T16:25:18.003Z,101348.22
2022-08-29T16:27:45.794Z,101358.38
2022-08-29T16:30:14.174Z,101355.44
2022-08-29T16:32:41.816Z,101362.50
2022-08-29T16:35:11.395Z,101349.34
2022-08-29T16:37:39.447Z,101357.53
2022-08-29T16:40:09.822Z,101347.38
2022-08-29T16:42:39.146Z,101352.19
2022-08-29T16:45:08.580Z,101363.19
2022-08-29T16:47:36.852Z,101351.03
2022-08-29T16:50:06.230Z,101349.78
2022-08-29T16:52:33.910Z,101348.41
2022-08-29T16:55:01.514Z,101341.31
2022-08-29T16:57:30.572Z,101341.16
2022-08-29T16:59:58.473Z,101338.63
2022-08-29T17:02:27.050Z,101336.28
2022-08-29T17:04:54.757Z,101348.63
2022-08-29T17:07:22.198Z,101349.06
2022-08-29T17:09:48.733Z,101354.72
2022-08-29T17:12:15.240Z,101345.41
2022-08-29T17:14:44.269Z,101356.31
2022-08-29T17:17:11.910Z,101362.47
2022-08-29T17:19:39.684Z,101358.81
2022-08-29T17:22:08.143Z,101361.63
2022-08-29T17:24:35.846Z,101364.03
2022-08-29T17:27:03.481Z,101362.72
2022-08-29T17:29:31.258Z,101373.09
2022-08-29T17:32:00.800Z,101366.47
2022-08-29T17:34:28.385Z,101359.06
2022-08-29T17:36:56.014Z,101365.03
2022-08-29T17:39:23.578Z,101367.97
2022-08-29T17:41:51.972Z,101376.50
2022-08-29T17:44:20.003Z,101378.91
2022-08-29T17:46:47.641Z,101373.56
2022-08-29T17:49:16.674Z,101373.56
2022-08-29T17:51:44.696Z,101375.78
2022-08-29T17:54:22.312Z,101372.66
2022-08-29T17:56:51.310Z,101373.22
2022-08-29T17:59:20.651Z,101373.88
2022-08-29T18:01:48.619Z,101379.63
2022-08-29T18:04:18.665Z,101378.59
2022-08-29T18:06:46.990Z,101388.00
2022-08-29T18:09:14.987Z,101385.06
2022-08-29T18:11:44.279Z,101387.53
2022-08-29T18:14:12.844Z,101396.06
2022-08-29T18:16:40.606Z,101394.25
2022-08-29T18:19:08.768Z,101395.16
2022-08-29T18:21:37.724Z,101397.50
2022-08-29T18:24:06.536Z,101395.88
2022-08-29T18:26:34.428Z,101395.53
2022-08-29T18:29:02.055Z,101398.13
2022-08-29T18:31:29.760Z,101399.31
2022-08-29T18:34:00.684Z,101402.03
2022-08-29T18:36:29.285Z,101408.88
2022-08-29T18:38:58.762Z,101404.03
2022-08-29T18:41:26.655Z,101410.75
2022-08-29T18:43:54.316Z,101415.34
2022-08-29T18:46:22.104Z,101419.38
2022-08-29T18:48:49.790Z,101429.81
2022-08-29T18:51:17.450Z,101426.03
2022-08-29T18:53:45.231Z,101439.28
2022-08-29T18:56:14.703Z,101433.38
2022-08-29T18:58:44.204Z,101443.09
2022-08-29T19:01:12.846Z,101432.88
2022-08-29T19:03:40.599Z,101438.34
2022-08-29T19:06:08.380Z,101436.28
2022-08-29T19:08:37.101Z,101440.41
2022-08-29T19:11:06.610Z,101439.88
2022-08-29T19:13:36.080Z,101443.63
2022-08-29T19:16:05.526Z,101441.31
2022-08-29T19:18:34.044Z,101439.06
2022-08-29T19:21:06.151Z,101442.34
2022-08-29T19:23:36.287Z,101439.69
2022-08-29T19:26:07.600Z,101447.28
2022-08-29T19:28:37.051Z,101448.09
2022-08-29T19:31:06.310Z,101452.28
2022-08-29T19:33:34.984Z,101454.81
2022-08-29T19:36:03.873Z,101459.50
2022-08-29T19:38:31.542Z,101455.75
2022-08-29T19:40:59.713Z,101463.91
2022-08-29T19:43:29.002Z,101460.97
2022-08-29T19:45:59.153Z,101460.44
2022-08-29T19:48:27.362Z,101458.97
2022-08-29T19:50:55.400Z,101459.19
2022-08-29T19:53:26.820Z,101462.22
2022-08-29T19:55:55.915Z,101466.81
2022-08-29T19:58:30.964Z,101460.97
2022-08-29T20:01:03.293Z,101466.09
2022-08-29T20:03:32.071Z,101472.47
2022-08-29T20:06:05.563Z,101470.97
2022-08-29T20:08:33.294Z,101472.88
2022-08-29T20:11:04.549Z,101474.88
2022-08-29T20:13:36.101Z,101477.66
2022-08-29T20:16:11.973Z,101471.03
2022-08-29T20:18:40.314Z,101472.94
2022-08-29T20:21:07.959Z,101475.31
2022-08-29T20:23:35.560Z,101468.28
2022-08-29T20:26:03.505Z,101479.97
2022-08-29T20:28:31.413Z,101473.38
2022-08-29T20:30:59.220Z,101478.38
2022-08-29T20:33:28.634Z,101479.34
2022-08-29T20:36:28.394Z,101480.59
2022-08-29T20:38:55.995Z,101483.94
2022-08-29T20:41:23.929Z,101482.72
2022-08-29T20:43:51.567Z,101478.03
2022-08-29T20:46:19.194Z,101473.78
2022-08-29T20:48:48.185Z,101490.94
2022-08-29T20:51:15.771Z,101494.03
2022-08-29T20:53:43.697Z,101493.06
2022-08-29T20:56:11.298Z,101492.63
2022-08-29T20:58:39.278Z,101489.44
2022-08-29T21:01:07.054Z,101487.09
2022-08-29T21:03:52.816Z,101484.22
2022-08-29T21:06:22.248Z,101488.06
2022-08-29T21:08:50.143Z,101486.78
2022-08-29T21:11:17.754Z,101488.81
2022-08-29T21:13:46.571Z,101481.66
2022-08-29T21:16:14.334Z,101484.84
2022-08-29T21:18:42.045Z,101480.47
2022-08-29T21:21:13.119Z,101478.00
2022-08-29T21:23:42.303Z,101485.75
2022-08-29T21:26:11.625Z,101491.88
2022-08-29T21:28:39.629Z,101497.59
2022-08-29T21:31:07.911Z,101500.47
2022-08-29T21:33:37.510Z,101504.22
2022-08-29T21:36:08.267Z,101505.59
2022-08-29T21:38:36.095Z,101501.78
2022-08-29T21:41:05.399Z,101508.06
2022-08-29T21:43:33.072Z,101497.72
2022-08-29T21:46:00.674Z,101507.31
2022-08-29T21:48:28.722Z,101505.25
2022-08-29T21:50:57.298Z,101501.44
2022-08-29T21:53:25.179Z,101510.59
2022-08-29T21:55:52.899Z,101494.63
2022-08-29T21:58:21.904Z,101501.19
2022-08-29T22:00:51.002Z,101497.78
2022-08-29T22:03:18.825Z,101497.53
2022-08-29T22:05:46.650Z,101494.78
2022-08-29T22:08:16.391Z,101506.25
2022-08-29T22:10:44.623Z,101499.63
2022-08-29T22:13:12.273Z,101495.63
2022-08-29T22:15:59.009Z,101496.56
2022-08-29T22:18:27.179Z,101501.72
2022-08-29T22:20:55.796Z,101497.91
2022-08-29T22:23:24.750Z,101498.88
2022-08-29T22:25:52.552Z,101493.38
2022-08-29T22:28:20.200Z,101499.75
2022-08-29T22:30:49.346Z,101508.28
2022-08-29T22:33:17.050Z,101513.88
2022-08-29T22:35:45.716Z,101513.41
2022-08-29T22:38:13.324Z,101518.91
2022-08-29T22:40:41.178Z,101515.69
2022-08-29T22:43:08.864Z,101521.88
2022-08-29T22:45:36.512Z,101522.53
2022-08-29T22:48:06.212Z,101524.53
2022-08-29T22:50:34.366Z,101522.25
2022-08-29T22:53:02.027Z,101524.34
2022-08-29T22:57:57.810Z,101529.66
2022-08-29T23:00:27.432Z,101528.31
2022-08-29T23:02:55.554Z,101533.63
2022-08-29T23:05:25.078Z,101531.63
2022-08-29T23:07:52.987Z,101531.16
2022-08-29T23:10:21.981Z,101529.25
2022-08-29T23:12:49.715Z,101526.59
2022-08-29T23:15:18.959Z,101528.97
2022-08-29T23:17:46.785Z,101534.56
2022-08-29T23:20:16.848Z,101532.88
2022-08-29T23:22:48.808Z,101537.13
2022-08-29T23:25:17.805Z,101539.31
2022-08-29T23:27:45.567Z,101546.34
2022-08-29T23:30:14.452Z,101550.78
2022-08-29T23:32:42.296Z,101544.81
2022-08-29T23:35:10.426Z,101550.78
2022-08-29T23:37:38.099Z,101542.44
2022-08-29T23:40:09.449Z,101544.16
2022-08-29T23:42:37.127Z,101544.81
2022-08-29T23:45:06.717Z,101540.91
2022-08-29T23:47:35.995Z,101546.50
2022-08-29T23:50:04.634Z,101546.97
2022-08-29T23:52:32.337Z,101543.75
2022-08-29T23:55:01.474Z,101554.47
2022-08-29T23:57:30.475Z,101553.13
